sensor_id;sensor_type;location;lat;lon;timestamp;pressure;altitude;pressure_sealevel;temperature;humidity
51053;BME280;37093;37.716;-122.060;2023-01-31T00:01:10;100140.27;;;14.51;14.91
51053;BME280;37093;37.716;-122.060;2023-01-31T00:03:39;100142.83;;;14.81;14.78
51053;BME280;37093;37.716;-122.060;2023-01-31T00:06:12;100148.98;;;14.53;15.16
51053;BME280;37093;37.716;-122.060;2023-01-31T00:08:41;100148.71;;;14.85;15.16
51053;BME280;37093;37.716;-122.060;2023-01-31T00:11:10;100145.33;;;15.03;14.57
51053;BME280;37093;37.716;-122.060;2023-01-31T00:13:40;100156.58;;;14.65;14.49
51053;BME280;37093;37.716;-122.060;2023-01-31T00:16:09;100156.63;;;14.17;14.66
51053;BME280;37093;37.716;-122.060;2023-01-31T00:18:38;100161.12;;;14.20;14.29
51053;BME280;37093;37.716;-122.060;2023-01-31T00:21:09;100162.39;;;13.85;14.03
51053;BME280;37093;37.716;-122.060;2023-01-31T00:23:39;100165.65;;;12.88;15.32
51053;BME280;37093;37.716;-122.060;2023-01-31T00:26:10;100166.26;;;13.06;14.43
51053;BME280;37093;37.716;-122.060;2023-01-31T00:28:39;100171.42;;;13.14;15.27
51053;BME280;37093;37.716;-122.060;2023-01-31T00:31:08;100176.21;;;13.37;14.93
51053;BME280;37093;37.716;-122.060;2023-01-31T00:33:38;100181.41;;;13.69;14.28
51053;BME280;37093;37.716;-122.060;2023-01-31T00:36:09;100179.76;;;13.61;13.93
51053;BME280;37093;37.716;-122.060;2023-01-31T00:38:38;100187.54;;;13.68;14.17
51053;BME280;37093;37.716;-122.060;2023-01-31T00:41:06;100184.90;;;13.79;13.56
51053;BME280;37093;37.716;-122.060;2023-01-31T00:43:35;100187.11;;;13.53;13.56
51053;BME280;37093;37.716;-122.060;2023-01-31T00:46:04;100182.64;;;13.85;14.10
51053;BME280;37093;37.716;-122.060;2023-01-31T00:48:33;100180.88;;;13.69;14.47
51053;BME280;37093;37.716;-122.060;2023-01-31T00:51:01;100183.80;;;13.47;14.11
51053;BME280;37093;37.716;-122.060;2023-01-31T00:53:30;100183.85;;;14.37;13.91
51053;BME280;37093;37.716;-122.060;2023-01-31T00:56:04;100179.10;;;14.48;13.85
51053;BME280;37093;37.716;-122.060;2023-01-31T00:58:34;100178.59;;;14.70;13.60
51053;BME280;37093;37.716;-122.060;2023-01-31T01:01:06;100176.14;;;14.61;14.28
51053;BME280;37093;37.716;-122.060;2023-01-31T01:03:35;100175.59;;;14.28;14.32
51053;BME280;37093;37.716;-122.060;2023-01-31T01:06:04;100178.17;;;14.55;13.74
51053;BME280;37093;37.716;-122.060;2023-01-31T01:08:33;100180.67;;;14.82;13.84
51053;BME280;37093;37.716;-122.060;2023-01-31T01:11:05;100183.34;;;14.89;14.46
51053;BME280;37093;37.716;-122.060;2023-01-31T01:13:35;100190.51;;;14.49;15.04
51053;BME280;37093;37.716;-122.060;2023-01-31T01:16:05;100191.92;;;14.88;14.69
51053;BME280;37093;37.716;-122.060;2023-01-31T01:18:34;100197.93;;;15.13;14.61
51053;BME280;37093;37.716;-122.060;2023-01-31T01:21:08;100201.33;;;14.81;14.62
51053;BME280;37093;37.716;-122.060;2023-01-31T01:23:37;100206.02;;;14.84;15.48
51053;BME280;37093;37.716;-122.060;2023-01-31T01:26:05;100210.16;;;14.94;13.82
51053;BME280;37093;37.716;-122.060;2023-01-31T01:28:34;100207.66;;;15.06;14.58
51053;BME280;37093;37.716;-122.060;2023-01-31T01:31:05;100211.31;;;14.82;14.79
51053;BME280;37093;37.716;-122.060;2023-01-31T01:33:34;100211.97;;;15.11;14.76
51053;BME280;37093;37.716;-122.060;2023-01-31T01:36:03;100210.35;;;14.65;14.61
51053;BME280;37093;37.716;-122.060;2023-01-31T01:38:33;100200.73;;;14.71;15.10
51053;BME280;37093;37.716;-122.060;2023-01-31T01:41:02;100202.78;;;14.49;16.53
51053;BME280;37093;37.716;-122.060;2023-01-31T01:43:49;100202.37;;;14.72;15.70
51053;BME280;37093;37.716;-122.060;2023-01-31T01:46:22;100207.06;;;14.83;15.46
51053;BME280;37093;37.716;-122.060;2023-01-31T01:48:57;100210.77;;;14.86;15.16
51053;BME280;37093;37.716;-122.060;2023-01-31T01:51:28;100208.66;;;14.75;15.13
51053;BME280;37093;37.716;-122.060;2023-01-31T01:54:00;100208.12;;;14.69;15.70
51053;BME280;37093;37.716;-122.060;2023-01-31T01:56:35;100206.10;;;14.42;15.10
51053;BME280;37093;37.716;-122.060;2023-01-31T01:59:08;100208.47;;;14.62;15.17
51053;BME280;37093;37.716;-122.060;2023-01-31T02:01:38;100211.83;;;14.19;14.56
51053;BME280;37093;37.716;-122.060;2023-01-31T02:04:09;100218.62;;;14.39;15.31
51053;BME280;37093;37.716;-122.060;2023-01-31T02:06:40;100219.20;;;14.34;14.00
51053;BME280;37093;37.716;-122.060;2023-01-31T02:09:13;100223.19;;;14.05;15.90
51053;BME280;37093;37.716;-122.060;2023-01-31T02:11:46;100221.33;;;13.99;14.64
51053;BME280;37093;37.716;-122.060;2023-01-31T02:14:15;100226.33;;;13.92;14.55
51053;BME280;37093;37.716;-122.060;2023-01-31T02:16:44;100228.27;;;13.75;15.43
51053;BME280;37093;37.716;-122.060;2023-01-31T02:19:21;100229.25;;;13.98;15.23
51053;BME280;37093;37.716;-122.060;2023-01-31T02:22:09;100225.90;;;14.03;14.63
51053;BME280;37093;37.716;-122.060;2023-01-31T02:25:26;100223.60;;;13.78;14.87
51053;BME280;37093;37.716;-122.060;2023-01-31T02:29:43;100234.70;;;14.40;15.17
51053;BME280;37093;37.716;-122.060;2023-01-31T02:32:34;100240.59;;;13.72;14.78
51053;BME280;37093;37.716;-122.060;2023-01-31T02:35:12;100247.40;;;13.46;15.71
51053;BME280;37093;37.716;-122.060;2023-01-31T02:37:53;100247.89;;;13.84;15.03
51053;BME280;37093;37.716;-122.060;2023-01-31T02:40:28;100245.67;;;13.31;15.67
51053;BME280;37093;37.716;-122.060;2023-01-31T02:43:06;100244.24;;;13.51;15.86
51053;BME280;37093;37.716;-122.060;2023-01-31T02:45:43;100245.80;;;13.72;15.73
51053;BME280;37093;37.716;-122.060;2023-01-31T02:48:21;100246.96;;;13.68;16.09
51053;BME280;37093;37.716;-122.060;2023-01-31T02:50:59;100247.63;;;13.47;14.98
51053;BME280;37093;37.716;-122.060;2023-01-31T02:53:33;100251.99;;;13.31;15.38
51053;BME280;37093;37.716;-122.060;2023-01-31T02:56:05;100250.35;;;13.19;15.68
51053;BME280;37093;37.716;-122.060;2023-01-31T02:58:38;100249.18;;;13.11;15.83
51053;BME280;37093;37.716;-122.060;2023-01-31T03:01:11;100250.27;;;13.08;17.06
51053;BME280;37093;37.716;-122.060;2023-01-31T03:03:41;100250.71;;;13.06;16.49
51053;BME280;37093;37.716;-122.060;2023-01-31T03:06:39;100247.94;;;13.04;16.20
51053;BME280;37093;37.716;-122.060;2023-01-31T03:09:16;100246.20;;;13.03;16.14
51053;BME280;37093;37.716;-122.060;2023-01-31T03:11:51;100248.08;;;12.97;16.92
51053;BME280;37093;37.716;-122.060;2023-01-31T03:14:29;100252.54;;;12.99;16.99
51053;BME280;37093;37.716;-122.060;2023-01-31T03:17:03;100253.35;;;12.87;16.65
51053;BME280;37093;37.716;-122.060;2023-01-31T03:19:39;100255.02;;;12.86;15.83
51053;BME280;37093;37.716;-122.060;2023-01-31T03:22:16;100255.39;;;12.81;17.36
51053;BME280;37093;37.716;-122.060;2023-01-31T03:24:49;100259.44;;;12.74;18.36
51053;BME280;37093;37.716;-122.060;2023-01-31T03:27:19;100267.20;;;12.19;19.21
51053;BME280;37093;37.716;-122.060;2023-01-31T03:29:48;100266.78;;;12.70;18.91
51053;BME280;37093;37.716;-122.060;2023-01-31T03:32:21;100267.61;;;12.63;19.09
51053;BME280;37093;37.716;-122.060;2023-01-31T03:34:51;100270.28;;;12.50;17.07
51053;BME280;37093;37.716;-122.060;2023-01-31T03:37:25;100278.76;;;11.86;18.00
51053;BME280;37093;37.716;-122.060;2023-01-31T03:40:01;100280.67;;;12.34;16.26
51053;BME280;37093;37.716;-122.060;2023-01-31T03:42:40;100284.59;;;12.23;17.45
51053;BME280;37093;37.716;-122.060;2023-01-31T03:45:13;100290.61;;;11.96;17.95
51053;BME280;37093;37.716;-122.060;2023-01-31T03:47:47;100290.27;;;12.38;17.28
51053;BME280;37093;37.716;-122.060;2023-01-31T03:50:20;100293.76;;;12.06;17.58
51053;BME280;37093;37.716;-122.060;2023-01-31T03:52:53;100295.42;;;12.03;18.56
51053;BME280;37093;37.716;-122.060;2023-01-31T03:55:29;100303.12;;;11.78;18.77
51053;BME280;37093;37.716;-122.060;2023-01-31T03:57:59;100306.58;;;11.52;16.98
51053;BME280;37093;37.716;-122.060;2023-01-31T04:00:34;100304.30;;;11.55;17.19
51053;BME280;37093;37.716;-122.060;2023-01-31T04:03:06;100305.35;;;11.94;17.33
51053;BME280;37093;37.716;-122.060;2023-01-31T04:05:38;100312.93;;;11.43;18.14
51053;BME280;37093;37.716;-122.060;2023-01-31T04:08:06;100307.07;;;10.96;17.49
51053;BME280;37093;37.716;-122.060;2023-01-31T04:10:35;100306.67;;;11.12;17.96
51053;BME280;37093;37.716;-122.060;2023-01-31T04:13:04;100313.53;;;11.66;17.98
51053;BME280;37093;37.716;-122.060;2023-01-31T04:15:32;100316.31;;;11.35;19.86
51053;BME280;37093;37.716;-122.060;2023-01-31T04:18:01;100319.38;;;11.18;19.00
51053;BME280;37093;37.716;-122.060;2023-01-31T04:20:30;100318.72;;;11.19;18.26
51053;BME280;37093;37.716;-122.060;2023-01-31T04:22:59;100319.43;;;11.44;19.18
51053;BME280;37093;37.716;-122.060;2023-01-31T04:25:27;100316.93;;;10.66;19.89
51053;BME280;37093;37.716;-122.060;2023-01-31T04:27:56;100319.12;;;11.00;20.09
51053;BME280;37093;37.716;-122.060;2023-01-31T04:30:24;100318.81;;;10.73;19.81
51053;BME280;37093;37.716;-122.060;2023-01-31T04:32:53;100318.84;;;10.54;18.71
51053;BME280;37093;37.716;-122.060;2023-01-31T04:35:22;100324.80;;;10.93;19.53
51053;BME280;37093;37.716;-122.060;2023-01-31T04:37:50;100331.53;;;10.97;19.27
51053;BME280;37093;37.716;-122.060;2023-01-31T04:40:19;100332.49;;;10.91;18.49
51053;BME280;37093;37.716;-122.060;2023-01-31T04:42:49;100339.32;;;10.85;19.15
51053;BME280;37093;37.716;-122.060;2023-01-31T04:45:18;100335.25;;;10.55;19.76
51053;BME280;37093;37.716;-122.060;2023-01-31T04:47:46;100337.58;;;10.71;19.19
51053;BME280;37093;37.716;-122.060;2023-01-31T04:50:16;100340.10;;;10.71;19.00
51053;BME280;37093;37.716;-122.060;2023-01-31T04:52:44;100344.33;;;10.76;18.86
51053;BME280;37093;37.716;-122.060;2023-01-31T04:55:16;100341.25;;;10.19;18.24
51053;BME280;37093;37.716;-122.060;2023-01-31T04:57:45;100340.03;;;10.72;18.67
51053;BME280;37093;37.716;-122.060;2023-01-31T05:00:14;100348.86;;;10.45;19.50
51053;BME280;37093;37.716;-122.060;2023-01-31T05:02:43;100352.26;;;10.78;20.49
51053;BME280;37093;37.716;-122.060;2023-01-31T05:05:11;100352.46;;;10.73;20.40
51053;BME280;37093;37.716;-122.060;2023-01-31T05:07:40;100353.87;;;10.51;20.53
51053;BME280;37093;37.716;-122.060;2023-01-31T05:10:11;100354.47;;;8.98;21.50
51053;BME280;37093;37.716;-122.060;2023-01-31T05:12:39;100354.01;;;10.14;20.85
51053;BME280;37093;37.716;-122.060;2023-01-31T05:15:09;100352.84;;;9.63;21.34
51053;BME280;37093;37.716;-122.060;2023-01-31T05:17:38;100356.63;;;10.30;21.02
51053;BME280;37093;37.716;-122.060;2023-01-31T05:20:08;100364.15;;;9.68;20.84
51053;BME280;37093;37.716;-122.060;2023-01-31T05:22:36;100363.39;;;10.06;21.40
51053;BME280;37093;37.716;-122.060;2023-01-31T05:25:07;100362.19;;;9.78;20.95
51053;BME280;37093;37.716;-122.060;2023-01-31T05:27:35;100367.40;;;9.77;21.82
51053;BME280;37093;37.716;-122.060;2023-01-31T05:30:05;100365.99;;;9.79;21.09
51053;BME280;37093;37.716;-122.060;2023-01-31T05:32:36;100370.52;;;10.06;21.01
51053;BME280;37093;37.716;-122.060;2023-01-31T05:35:05;100369.68;;;9.82;21.36
51053;BME280;37093;37.716;-122.060;2023-01-31T05:37:34;100360.39;;;9.79;21.48
51053;BME280;37093;37.716;-122.060;2023-01-31T05:40:03;100355.69;;;10.01;21.64
51053;BME280;37093;37.716;-122.060;2023-01-31T05:42:31;100350.60;;;9.83;22.14
51053;BME280;37093;37.716;-122.060;2023-01-31T05:44:59;100351.34;;;9.85;22.08
51053;BME280;37093;37.716;-122.060;2023-01-31T05:47:28;100347.75;;;9.88;20.84
51053;BME280;37093;37.716;-122.060;2023-01-31T05:49:57;100347.40;;;9.65;20.74
51053;BME280;37093;37.716;-122.060;2023-01-31T05:52:26;100346.00;;;9.67;18.89
51053;BME280;37093;37.716;-122.060;2023-01-31T05:54:54;100344.50;;;9.83;17.53
51053;BME280;37093;37.716;-122.060;2023-01-31T05:57:23;100347.73;;;9.60;17.17
51053;BME280;37093;37.716;-122.060;2023-01-31T05:59:51;100342.59;;;9.66;16.61
51053;BME280;37093;37.716;-122.060;2023-01-31T06:02:20;100349.42;;;9.73;16.28
51053;BME280;37093;37.716;-122.060;2023-01-31T06:04:49;100344.36;;;10.07;17.04
51053;BME280;37093;37.716;-122.060;2023-01-31T06:07:18;100339.59;;;10.06;15.94
51053;BME280;37093;37.716;-122.060;2023-01-31T06:09:46;100346.21;;;9.86;15.75
51053;BME280;37093;37.716;-122.060;2023-01-31T06:12:15;100339.72;;;10.22;15.10
51053;BME280;37093;37.716;-122.060;2023-01-31T06:14:44;100341.35;;;9.91;15.03
51053;BME280;37093;37.716;-122.060;2023-01-31T06:17:12;100342.54;;;9.78;16.00
51053;BME280;37093;37.716;-122.060;2023-01-31T06:19:41;100335.23;;;9.73;15.22
51053;BME280;37093;37.716;-122.060;2023-01-31T06:22:09;100341.33;;;9.42;16.43
51053;BME280;37093;37.716;-122.060;2023-01-31T06:24:38;100343.52;;;9.50;14.58
51053;BME280;37093;37.716;-122.060;2023-01-31T06:27:07;100346.44;;;9.67;14.89
51053;BME280;37093;37.716;-122.060;2023-01-31T06:29:35;100345.51;;;9.77;14.15
51053;BME280;37093;37.716;-122.060;2023-01-31T06:32:05;100346.72;;;9.61;14.51
51053;BME280;37093;37.716;-122.060;2023-01-31T06:34:33;100341.45;;;9.11;16.27
51053;BME280;37093;37.716;-122.060;2023-01-31T06:37:01;100340.33;;;9.22;14.11
51053;BME280;37093;37.716;-122.060;2023-01-31T06:39:30;100339.30;;;9.00;14.34
51053;BME280;37093;37.716;-122.060;2023-01-31T06:41:59;100341.96;;;8.99;13.79
51053;BME280;37093;37.716;-122.060;2023-01-31T06:44:27;100346.84;;;9.50;13.37
51053;BME280;37093;37.716;-122.060;2023-01-31T06:46:56;100349.25;;;9.69;13.52
51053;BME280;37093;37.716;-122.060;2023-01-31T06:49:25;100354.76;;;9.13;14.30
51053;BME280;37093;37.716;-122.060;2023-01-31T06:51:53;100350.36;;;10.03;13.88
51053;BME280;37093;37.716;-122.060;2023-01-31T06:54:22;100346.09;;;9.35;13.84
51053;BME280;37093;37.716;-122.060;2023-01-31T06:56:50;100352.50;;;9.39;13.56
51053;BME280;37093;37.716;-122.060;2023-01-31T06:59:19;100353.86;;;9.26;13.78
51053;BME280;37093;37.716;-122.060;2023-01-31T07:01:48;100362.40;;;9.55;13.68
51053;BME280;37093;37.716;-122.060;2023-01-31T07:04:16;100357.47;;;9.43;13.74
51053;BME280;37093;37.716;-122.060;2023-01-31T07:06:45;100354.30;;;8.67;14.72
51053;BME280;37093;37.716;-122.060;2023-01-31T07:09:14;100356.24;;;8.99;13.75
51053;BME280;37093;37.716;-122.060;2023-01-31T07:11:42;100351.15;;;8.67;13.77
51053;BME280;37093;37.716;-122.060;2023-01-31T07:14:11;100345.03;;;8.66;13.22
51053;BME280;37093;37.716;-122.060;2023-01-31T07:16:40;100359.21;;;8.40;13.66
51053;BME280;37093;37.716;-122.060;2023-01-31T07:19:09;100356.95;;;9.69;13.01
51053;BME280;37093;37.716;-122.060;2023-01-31T07:21:37;100355.85;;;9.46;12.79
51053;BME280;37093;37.716;-122.060;2023-01-31T07:24:06;100358.96;;;9.32;12.81
51053;BME280;37093;37.716;-122.060;2023-01-31T07:26:35;100360.80;;;8.39;13.17
51053;BME280;37093;37.716;-122.060;2023-01-31T07:29:05;100362.36;;;9.31;12.63
51053;BME280;37093;37.716;-122.060;2023-01-31T07:31:33;100367.47;;;9.04;12.64
51053;BME280;37093;37.716;-122.060;2023-01-31T07:34:02;100372.57;;;9.64;12.34
51053;BME280;37093;37.716;-122.060;2023-01-31T07:36:31;100369.84;;;9.33;12.84
51053;BME280;37093;37.716;-122.060;2023-01-31T07:39:00;100369.79;;;9.67;12.17
51053;BME280;37093;37.716;-122.060;2023-01-31T07:41:29;100365.97;;;9.72;12.74
51053;BME280;37093;37.716;-122.060;2023-01-31T07:43:58;100364.94;;;9.77;12.53
51053;BME280;37093;37.716;-122.060;2023-01-31T07:46:27;100363.99;;;9.17;12.18
51053;BME280;37093;37.716;-122.060;2023-01-31T07:48:55;100366.00;;;9.73;11.89
51053;BME280;37093;37.716;-122.060;2023-01-31T07:51:24;100362.85;;;9.58;12.00
51053;BME280;37093;37.716;-122.060;2023-01-31T07:53:52;100369.16;;;9.69;12.55
51053;BME280;37093;37.716;-122.060;2023-01-31T07:56:21;100371.06;;;9.42;11.80
51053;BME280;37093;37.716;-122.060;2023-01-31T07:58:50;100374.83;;;9.14;12.25
51053;BME280;37093;37.716;-122.060;2023-01-31T08:01:14;100377.47;;;8.67;11.98
51053;BME280;37093;37.716;-122.060;2023-01-31T08:03:43;100385.05;;;8.74;10.91
51053;BME280;37093;37.716;-122.060;2023-01-31T08:06:12;100376.70;;;10.38;10.84
51053;BME280;37093;37.716;-122.060;2023-01-31T08:08:42;100375.87;;;10.73;10.84
51053;BME280;37093;37.716;-122.060;2023-01-31T08:11:11;100386.96;;;10.22;11.63
51053;BME280;37093;37.716;-122.060;2023-01-31T08:13:39;100383.08;;;10.49;11.34
51053;BME280;37093;37.716;-122.060;2023-01-31T08:16:09;100387.49;;;10.31;12.35
51053;BME280;37093;37.716;-122.060;2023-01-31T08:18:38;100384.83;;;10.53;11.36
51053;BME280;37093;37.716;-122.060;2023-01-31T08:21:09;100381.63;;;10.02;11.34
51053;BME280;37093;37.716;-122.060;2023-01-31T08:23:38;100386.63;;;10.30;11.86
51053;BME280;37093;37.716;-122.060;2023-01-31T08:26:10;100389.00;;;9.73;11.69
51053;BME280;37093;37.716;-122.060;2023-01-31T08:28:39;100386.25;;;9.34;11.83
51053;BME280;37093;37.716;-122.060;2023-01-31T08:31:12;100388.16;;;9.59;11.93
51053;BME280;37093;37.716;-122.060;2023-01-31T08:33:41;100402.24;;;10.11;11.77
51053;BME280;37093;37.716;-122.060;2023-01-31T08:36:13;100405.56;;;10.44;11.98
51053;BME280;37093;37.716;-122.060;2023-01-31T08:38:42;100399.10;;;10.76;10.94
51053;BME280;37093;37.716;-122.060;2023-01-31T08:41:11;100394.00;;;10.17;12.08
51053;BME280;37093;37.716;-122.060;2023-01-31T08:43:39;100397.73;;;10.45;11.66
51053;BME280;37093;37.716;-122.060;2023-01-31T08:46:08;100391.53;;;10.93;12.25
51053;BME280;37093;37.716;-122.060;2023-01-31T08:48:37;100387.67;;;10.87;11.27
51053;BME280;37093;37.716;-122.060;2023-01-31T08:51:08;100381.11;;;11.14;11.72
51053;BME280;37093;37.716;-122.060;2023-01-31T08:53:37;100385.63;;;10.83;12.21
51053;BME280;37093;37.716;-122.060;2023-01-31T08:56:07;100379.81;;;10.74;11.62
51053;BME280;37093;37.716;-122.060;2023-01-31T08:58:38;100385.94;;;10.44;12.75
51053;BME280;37093;37.716;-122.060;2023-01-31T09:01:08;100386.36;;;11.13;11.16
51053;BME280;37093;37.716;-122.060;2023-01-31T09:03:38;100397.20;;;11.34;11.55
51053;BME280;37093;37.716;-122.060;2023-01-31T09:06:11;100402.06;;;10.65;11.77
51053;BME280;37093;37.716;-122.060;2023-01-31T09:08:39;100409.67;;;10.47;12.70
51053;BME280;37093;37.716;-122.060;2023-01-31T09:11:08;100404.14;;;10.52;12.23
51053;BME280;37093;37.716;-122.060;2023-01-31T09:13:36;100412.52;;;10.86;11.08
51053;BME280;37093;37.716;-122.060;2023-01-31T09:16:07;100415.83;;;10.44;12.17
51053;BME280;37093;37.716;-122.060;2023-01-31T09:18:38;100416.69;;;10.79;12.13
51053;BME280;37093;37.716;-122.060;2023-01-31T09:21:07;100416.43;;;10.69;11.42
51053;BME280;37093;37.716;-122.060;2023-01-31T09:23:36;100414.96;;;10.46;11.70
51053;BME280;37093;37.716;-122.060;2023-01-31T09:26:06;100414.72;;;10.87;11.00
51053;BME280;37093;37.716;-122.060;2023-01-31T09:28:34;100419.54;;;10.95;13.04
51053;BME280;37093;37.716;-122.060;2023-01-31T09:31:03;100429.17;;;10.64;13.98
51053;BME280;37093;37.716;-122.060;2023-01-31T09:33:33;100423.01;;;11.22;12.28
51053;BME280;37093;37.716;-122.060;2023-01-31T09:36:03;100429.73;;;10.98;11.69
51053;BME280;37093;37.716;-122.060;2023-01-31T09:38:32;100426.74;;;10.68;10.96
51053;BME280;37093;37.716;-122.060;2023-01-31T09:41:03;100435.71;;;10.39;12.28
51053;BME280;37093;37.716;-122.060;2023-01-31T09:43:35;100429.61;;;10.52;11.64
51053;BME280;37093;37.716;-122.060;2023-01-31T09:46:10;100431.76;;;10.49;12.16
51053;BME280;37093;37.716;-122.060;2023-01-31T09:48:44;100429.31;;;10.81;11.36
51053;BME280;37093;37.716;-122.060;2023-01-31T09:51:14;100422.54;;;11.16;10.45
51053;BME280;37093;37.716;-122.060;2023-01-31T09:53:44;100420.38;;;11.13;12.38
51053;BME280;37093;37.716;-122.060;2023-01-31T09:56:22;100423.95;;;11.10;12.31
51053;BME280;37093;37.716;-122.060;2023-01-31T09:58:58;100426.05;;;11.39;11.54
51053;BME280;37093;37.716;-122.060;2023-01-31T10:01:32;100424.55;;;11.16;12.69
51053;BME280;37093;37.716;-122.060;2023-01-31T10:04:14;100425.39;;;11.29;11.66
51053;BME280;37093;37.716;-122.060;2023-01-31T10:06:51;100426.89;;;11.24;11.68
51053;BME280;37093;37.716;-122.060;2023-01-31T10:09:27;100427.01;;;11.21;12.24
51053;BME280;37093;37.716;-122.060;2023-01-31T10:11:59;100425.75;;;11.60;11.49
51053;BME280;37093;37.716;-122.060;2023-01-31T10:14:35;100429.77;;;11.29;12.65
51053;BME280;37093;37.716;-122.060;2023-01-31T10:17:10;100432.60;;;11.54;12.05
51053;BME280;37093;37.716;-122.060;2023-01-31T10:19:44;100437.70;;;11.33;12.19
51053;BME280;37093;37.716;-122.060;2023-01-31T10:22:18;100436.43;;;11.13;12.42
51053;BME280;37093;37.716;-122.060;2023-01-31T10:24:53;100447.28;;;11.20;12.15
51053;BME280;37093;37.716;-122.060;2023-01-31T10:27:36;100455.44;;;11.47;12.76
51053;BME280;37093;37.716;-122.060;2023-01-31T10:30:16;100454.95;;;10.71;12.40
51053;BME280;37093;37.716;-122.060;2023-01-31T10:32:46;100457.96;;;11.13;13.14
51053;BME280;37093;37.716;-122.060;2023-01-31T10:35:22;100457.38;;;10.93;12.67
51053;BME280;37093;37.716;-122.060;2023-01-31T10:37:54;100465.86;;;11.29;12.28
51053;BME280;37093;37.716;-122.060;2023-01-31T10:40:29;100467.41;;;11.27;12.84
51053;BME280;37093;37.716;-122.060;2023-01-31T10:43:07;100469.94;;;10.97;12.65
51053;BME280;37093;37.716;-122.060;2023-01-31T10:45:38;100469.14;;;11.01;13.44
51053;BME280;37093;37.716;-122.060;2023-01-31T10:48:15;100470.04;;;10.97;12.83
51053;BME280;37093;37.716;-122.060;2023-01-31T10:50:57;100473.81;;;11.16;14.61
51053;BME280;37093;37.716;-122.060;2023-01-31T10:53:40;100472.13;;;11.13;15.13
51053;BME280;37093;37.716;-122.060;2023-01-31T10:56:12;100469.41;;;11.11;13.65
51053;BME280;37093;37.716;-122.060;2023-01-31T10:58:44;100467.21;;;11.02;13.69
51053;BME280;37093;37.716;-122.060;2023-01-31T11:01:12;100469.39;;;10.96;14.13
51053;BME280;37093;37.716;-122.060;2023-01-31T11:03:47;100466.30;;;10.91;13.91
51053;BME280;37093;37.716;-122.060;2023-01-31T11:06:16;100467.57;;;10.85;14.36
51053;BME280;37093;37.716;-122.060;2023-01-31T11:08:47;100461.63;;;10.84;13.61
51053;BME280;37093;37.716;-122.060;2023-01-31T11:11:18;100455.41;;;10.82;14.68
51053;BME280;37093;37.716;-122.060;2023-01-31T11:14:04;100455.68;;;10.97;14.36
51053;BME280;37093;37.716;-122.060;2023-01-31T11:16:34;100448.81;;;10.84;15.81
51053;BME280;37093;37.716;-122.060;2023-01-31T11:19:16;100444.38;;;10.75;15.38
51053;BME280;37093;37.716;-122.060;2023-01-31T11:21:49;100443.97;;;10.71;15.16
51053;BME280;37093;37.716;-122.060;2023-01-31T11:24:21;100444.20;;;10.65;15.79
51053;BME280;37093;37.716;-122.060;2023-01-31T11:26:53;100443.71;;;10.48;14.84
51053;BME280;37093;37.716;-122.060;2023-01-31T11:29:27;100451.18;;;10.55;16.03
51053;BME280;37093;37.716;-122.060;2023-01-31T11:31:57;100453.02;;;10.26;15.71
51053;BME280;37093;37.716;-122.060;2023-01-31T11:34:27;100456.39;;;10.34;15.86
51053;BME280;37093;37.716;-122.060;2023-01-31T11:37:04;100460.98;;;10.27;16.56
51053;BME280;37093;37.716;-122.060;2023-01-31T11:39:35;100462.55;;;9.88;16.00
51053;BME280;37093;37.716;-122.060;2023-01-31T11:42:09;100467.29;;;10.30;15.76
51053;BME280;37093;37.716;-122.060;2023-01-31T11:44:55;100464.27;;;9.91;16.32
51053;BME280;37093;37.716;-122.060;2023-01-31T11:47:30;100458.48;;;10.12;15.60
51053;BME280;37093;37.716;-122.060;2023-01-31T11:50:00;100457.09;;;10.19;16.39
51053;BME280;37093;37.716;-122.060;2023-01-31T11:52:31;100456.79;;;10.08;15.95
51053;BME280;37093;37.716;-122.060;2023-01-31T11:55:05;100456.36;;;9.99;15.86
51053;BME280;37093;37.716;-122.060;2023-01-31T11:57:36;100455.46;;;10.04;15.01
51053;BME280;37093;37.716;-122.060;2023-01-31T12:00:17;100458.67;;;9.88;14.75
51053;BME280;37093;37.716;-122.060;2023-01-31T12:02:50;100461.30;;;10.02;14.58
51053;BME280;37093;37.716;-122.060;2023-01-31T12:05:35;100453.71;;;9.38;15.23
51053;BME280;37093;37.716;-122.060;2023-01-31T12:08:04;100449.94;;;9.90;14.66
51053;BME280;37093;37.716;-122.060;2023-01-31T12:10:40;100442.52;;;9.63;14.81
51053;BME280;37093;37.716;-122.060;2023-01-31T12:13:17;100438.87;;;9.79;14.55
51053;BME280;37093;37.716;-122.060;2023-01-31T12:15:50;100443.69;;;9.82;14.54
51053;BME280;37093;37.716;-122.060;2023-01-31T12:18:28;100454.17;;;9.73;16.84
51053;BME280;37093;37.716;-122.060;2023-01-31T12:21:06;100463.84;;;9.17;18.21
51053;BME280;37093;37.716;-122.060;2023-01-31T12:23:47;100466.43;;;8.97;18.59
51053;BME280;37093;37.716;-122.060;2023-01-31T12:26:27;100465.43;;;8.98;17.36
51053;BME280;37093;37.716;-122.060;2023-01-31T12:29:12;100461.75;;;9.14;16.77
51053;BME280;37093;37.716;-122.060;2023-01-31T12:31:55;100454.53;;;9.27;16.38
51053;BME280;37093;37.716;-122.060;2023-01-31T12:34:37;100453.70;;;8.84;15.63
51053;BME280;37093;37.716;-122.060;2023-01-31T12:37:20;100447.99;;;9.44;15.86
51053;BME280;37093;37.716;-122.060;2023-01-31T12:40:04;100448.72;;;9.32;15.43
51053;BME280;37093;37.716;-122.060;2023-01-31T12:42:47;100455.95;;;9.26;16.11
51053;BME280;37093;37.716;-122.060;2023-01-31T12:45:33;100452.79;;;9.58;16.14
51053;BME280;37093;37.716;-122.060;2023-01-31T12:48:19;100449.28;;;9.46;15.70